Time;durP1;ratioP1;P1;durP2;ratioP2;P2;SDS_P1;SDS_P2;PMS_P1;PMS_P2;Temp;Humidity;BMP_temperature;BMP_pressure;BME280_temperature;BME280_humidity;BME280_pressure;Samples;Min_cycle;Max_cycle;Signal;HPM_P1;HPM_P2
2023/06/10 00:02:29;;;;;;;4.33;4.03;;;;;;;;;;6346291;22;20842;-62
2023/06/10 00:05:32;;;;;;;4.27;3.87;;;;;;;;;;6319106;28;20460;-62
2023/06/10 00:08:37;;;;;;;4.47;4.07;;;;;;;;;;6322683;28;20446;-62
2023/06/10 00:11:41;;;;;;;5.10;4.23;;;;;;;;;;6322377;28;20476;-61
2023/06/10 00:14:44;;;;;;;4.03;3.73;;;;;;;;;;6317039;28;20436;-63
2023/06/10 00:17:48;;;;;;;8.83;3.90;;;;;;;;;;6324083;28;20458;-63
2023/06/10 00:20:52;;;;;;;5.00;3.97;;;;;;;;;;6322677;28;20438;-62
2023/06/10 00:23:56;;;;;;;4.40;4.00;;;;;;;;;;6321540;28;20436;-63
2023/06/10 00:27:00;;;;;;;4.10;3.80;;;;;;;;;;6317494;28;20818;-63
2023/06/10 00:30:06;;;;;;;5.83;4.03;;;;;;;;;;6327278;28;20436;-63
2023/06/10 00:33:10;;;;;;;7.03;3.83;;;;;;;;;;6323749;28;20528;-63
2023/06/10 00:36:13;;;;;;;4.33;4.00;;;;;;;;;;6321229;28;20454;-63
2023/06/10 00:39:16;;;;;;;4.77;3.93;;;;;;;;;;6310875;28;20938;-63
2023/06/10 00:42:22;;;;;;;4.80;4.40;;;;;;;;;;6322813;28;20433;-63
2023/06/10 00:45:25;;;;;;;4.20;3.90;;;;;;;;;;6337918;28;21004;-63
2023/06/10 00:48:28;;;;;;;4.00;3.70;;;;;;;;;;6319707;28;20464;-64
2023/06/10 00:51:31;;;;;;;4.20;3.90;;;;;;;;;;6310568;28;20445;-63
2023/06/10 00:54:34;;;;;;;8.13;4.37;;;;;;;;;;6321580;28;20440;-63
2023/06/10 00:57:39;;;;;;;4.17;3.83;;;;;;;;;;6322150;28;20444;-63
2023/06/10 01:00:42;;;;;;;5.00;4.60;;;;;;;;;;6319009;28;20445;-64
2023/06/10 01:03:45;;;;;;;4.40;4.00;;;;;;;;;;6322255;28;20523;-63
2023/06/10 01:06:52;;;;;;;4.43;4.03;;;;;;;;;;6322395;28;20449;-66
2023/06/10 01:09:57;;;;;;;4.57;4.27;;;;;;;;;;6322910;28;20460;-66
2023/06/10 01:13:03;;;;;;;4.50;4.20;;;;;;;;;;6311826;28;20437;-66
2023/06/10 01:16:06;;;;;;;4.20;3.90;;;;;;;;;;6312203;28;20907;-66
2023/06/10 01:19:09;;;;;;;4.53;4.20;;;;;;;;;;6321253;28;20940;-66
2023/06/10 01:22:16;;;;;;;4.53;4.23;;;;;;;;;;6319830;28;20429;-66
2023/06/10 01:25:20;;;;;;;4.27;3.93;;;;;;;;;;6310884;28;20456;-66
2023/06/10 01:28:27;;;;;;;4.50;4.20;;;;;;;;;;6320536;28;20907;-64
2023/06/10 01:31:36;;;;;;;4.60;4.30;;;;;;;;;;6320129;28;22461;-64
2023/06/10 01:34:40;;;;;;;6.00;4.60;;;;;;;;;;6318838;28;20563;-65
2023/06/10 01:37:46;;;;;;;5.00;4.50;;;;;;;;;;6310290;28;20533;-64
2023/06/10 01:40:50;;;;;;;5.50;5.00;;;;;;;;;;6325012;28;20437;-67
2023/06/10 01:43:53;;;;;;;4.63;4.23;;;;;;;;;;6320985;28;20433;-65
2023/06/10 01:46:55;;;;;;;5.00;4.70;;;;;;;;;;6317024;28;20442;-67
2023/06/10 01:49:58;;;;;;;5.30;4.80;;;;;;;;;;6322434;28;20428;-65
2023/06/10 01:53:03;;;;;;;5.00;4.60;;;;;;;;;;6328411;28;20469;-65
2023/06/10 01:56:06;;;;;;;5.33;4.93;;;;;;;;;;6324880;28;20438;-66
2023/06/10 01:59:08;;;;;;;4.93;4.47;;;;;;;;;;6309229;28;20436;-66
2023/06/10 02:02:11;;;;;;;5.10;4.60;;;;;;;;;;6325164;28;20932;-65
2023/06/10 02:05:14;;;;;;;5.93;4.90;;;;;;;;;;6329064;28;20527;-66
2023/06/10 02:08:18;;;;;;;5.20;4.67;;;;;;;;;;6321458;28;20439;-66
2023/06/10 02:11:21;;;;;;;5.27;4.87;;;;;;;;;;6303654;28;20433;-67
2023/06/10 02:14:24;;;;;;;5.00;4.60;;;;;;;;;;6329259;28;20435;-64
2023/06/10 02:17:27;;;;;;;4.97;4.67;;;;;;;;;;6322223;28;20456;-66
2023/06/10 02:20:30;;;;;;;7.03;5.03;;;;;;;;;;6315722;28;20437;-66
2023/06/10 02:23:34;;;;;;;5.17;4.77;;;;;;;;;;6318916;28;20441;-66
2023/06/10 02:26:37;;;;;;;5.00;4.70;;;;;;;;;;6324912;28;20440;-67
2023/06/10 02:29:41;;;;;;;5.33;4.83;;;;;;;;;;6321851;28;20433;-65
2023/06/10 02:32:47;;;;;;;7.17;5.20;;;;;;;;;;6313633;28;20453;-65
2023/06/10 02:35:51;;;;;;;5.80;5.30;;;;;;;;;;6324678;28;20439;-66
2023/06/10 02:38:55;;;;;;;6.50;6.00;;;;;;;;;;6322261;28;20579;-66
2023/06/10 02:41:58;;;;;;;6.10;5.50;;;;;;;;;;6325440;28;20433;-80
2023/06/10 02:45:01;;;;;;;5.63;5.13;;;;;;;;;;6315926;28;20437;-77
2023/06/10 02:48:04;;;;;;;11.27;6.00;;;;;;;;;;6325435;28;20433;-66
2023/06/10 02:51:07;;;;;;;5.97;5.47;;;;;;;;;;6337023;28;20510;-65
2023/06/10 02:54:11;;;;;;;6.17;5.67;;;;;;;;;;6324258;28;20744;-65
2023/06/10 02:57:14;;;;;;;5.97;5.37;;;;;;;;;;6305237;28;20472;-66
2023/06/10 03:00:20;;;;;;;5.20;4.87;;;;;;;;;;6318408;28;20457;-65
2023/06/10 03:03:23;;;;;;;5.70;5.20;;;;;;;;;;6331317;28;20437;-66
2023/06/10 03:06:26;;;;;;;6.60;6.07;;;;;;;;;;6313375;28;20528;-66
2023/06/10 03:09:30;;;;;;;7.13;6.07;;;;;;;;;;6311829;28;20530;-67
2023/06/10 03:12:33;;;;;;;6.40;5.83;;;;;;;;;;6324030;28;20933;-65
2023/06/10 03:15:36;;;;;;;6.30;5.80;;;;;;;;;;6322799;28;20429;-69
2023/06/10 03:18:39;;;;;;;6.23;5.40;;;;;;;;;;6305776;28;20829;-67
2023/06/10 03:21:45;;;;;;;6.27;5.70;;;;;;;;;;6325508;28;21069;-67
2023/06/10 03:24:50;;;;;;;6.10;5.43;;;;;;;;;;6321172;28;20426;-67
2023/06/10 03:27:53;;;;;;;7.07;6.47;;;;;;;;;;6324437;28;20437;-69
2023/06/10 03:30:56;;;;;;;7.30;5.60;;;;;;;;;;6314138;28;20935;-69
2023/06/10 03:33:59;;;;;;;6.40;5.80;;;;;;;;;;6324888;28;20437;-70
2023/06/10 03:37:02;;;;;;;5.70;5.10;;;;;;;;;;6310761;28;20430;-69
2023/06/10 03:40:08;;;;;;;7.20;5.50;;;;;;;;;;6310850;28;21018;-67
2023/06/10 03:43:11;;;;;;;5.80;5.40;;;;;;;;;;6319010;28;20479;-67
2023/06/10 03:46:14;;;;;;;6.07;5.50;;;;;;;;;;6324088;28;20797;-68
2023/06/10 03:49:17;;;;;;;9.03;6.07;;;;;;;;;;6324712;28;20437;-67
2023/06/10 03:52:20;;;;;;;8.00;5.87;;;;;;;;;;6313139;28;20437;-68
2023/06/10 03:55:24;;;;;;;5.70;5.20;;;;;;;;;;6324262;28;20428;-68
2023/06/10 03:58:27;;;;;;;5.93;5.33;;;;;;;;;;6324056;28;20460;-66
2023/06/10 04:01:29;;;;;;;8.80;8.10;;;;;;;;;;6323051;28;20453;-68
2023/06/10 04:04:32;;;;;;;13.27;12.13;;;;;;;;;;6309475;28;20450;-67
2023/06/10 04:07:35;;;;;;;10.27;9.30;;;;;;;;;;6323645;28;20434;-67
2023/06/10 04:10:39;;;;;;;13.47;12.47;;;;;;;;;;6307590;28;20923;-67
2023/06/10 04:13:42;;;;;;;11.57;10.67;;;;;;;;;;6323803;28;20491;-68
2023/06/10 04:16:45;;;;;;;10.87;9.97;;;;;;;;;;6329154;28;20428;-67
2023/06/10 04:19:48;;;;;;;10.17;9.37;;;;;;;;;;6328324;28;20453;-71
2023/06/10 04:22:51;;;;;;;10.17;9.17;;;;;;;;;;6317403;28;20430;-64
2023/06/10 04:25:55;;;;;;;11.07;7.53;;;;;;;;;;6314140;28;20437;-64
2023/06/10 04:28:58;;;;;;;8.07;7.30;;;;;;;;;;6316770;28;20578;-63
2023/06/10 04:32:01;;;;;;;7.93;7.13;;;;;;;;;;6319126;28;20433;-64
2023/06/10 04:35:06;;;;;;;11.43;7.20;;;;;;;;;;6325429;28;20437;-66
2023/06/10 04:38:09;;;;;;;9.03;6.43;;;;;;;;;;6301503;28;20466;-66
2023/06/10 04:41:13;;;;;;;14.63;7.43;;;;;;;;;;6324589;28;20946;-64
2023/06/10 04:44:16;;;;;;;7.20;6.30;;;;;;;;;;6321418;28;20518;-67
2023/06/10 04:47:20;;;;;;;9.40;6.50;;;;;;;;;;6320892;28;20440;-65
2023/06/10 04:50:22;;;;;;;8.60;6.70;;;;;;;;;;6307082;28;21030;-68
2023/06/10 04:53:25;;;;;;;8.73;6.67;;;;;;;;;;6322204;28;20444;-67
2023/06/10 04:56:30;;;;;;;7.30;6.40;;;;;;;;;;6327559;28;20446;-66
2023/06/10 04:59:32;;;;;;;7.87;7.17;;;;;;;;;;6315293;28;20453;-67
2023/06/10 05:02:35;;;;;;;9.10;6.90;;;;;;;;;;6301710;28;20468;-63
2023/06/10 05:05:38;;;;;;;8.23;7.43;;;;;;;;;;6328961;28;20915;-63
2023/06/10 05:08:41;;;;;;;7.60;6.90;;;;;;;;;;6319747;28;20524;-63
2023/06/10 05:11:46;;;;;;;9.10;8.07;;;;;;;;;;6318946;28;20453;-63
2023/06/10 05:14:49;;;;;;;8.53;7.50;;;;;;;;;;6325060;28;20445;-63
2023/06/10 05:17:51;;;;;;;8.00;7.20;;;;;;;;;;6314883;28;20438;-62
2023/06/10 05:20:55;;;;;;;7.83;6.83;;;;;;;;;;6320748;28;20440;-63
2023/06/10 05:23:58;;;;;;;9.70;8.00;;;;;;;;;;6309661;28;20518;-64
2023/06/10 05:27:02;;;;;;;7.53;7.00;;;;;;;;;;6314303;28;20437;-64
2023/06/10 05:30:07;;;;;;;8.60;7.90;;;;;;;;;;6319753;28;20521;-64
2023/06/10 05:33:10;;;;;;;9.30;8.60;;;;;;;;;;6319073;28;20583;-64
2023/06/10 05:36:13;;;;;;;10.13;9.23;;;;;;;;;;6313155;28;20433;-63
2023/06/10 05:39:16;;;;;;;11.23;9.90;;;;;;;;;;6318866;28;20449;-67
2023/06/10 05:42:20;;;;;;;23.57;8.77;;;;;;;;;;6317116;28;20521;-64
2023/06/10 05:45:23;;;;;;;13.80;7.97;;;;;;;;;;6314623;28;21009;-67
2023/06/10 05:48:25;;;;;;;12.47;9.10;;;;;;;;;;6324036;28;20499;-64
2023/06/10 05:51:28;;;;;;;11.03;8.50;;;;;;;;;;6315866;28;20455;-65
2023/06/10 05:54:31;;;;;;;11.60;8.63;;;;;;;;;;6321206;28;20454;-65
2023/06/10 05:57:35;;;;;;;9.47;8.57;;;;;;;;;;6319106;28;21065;-64
2023/06/10 06:00:38;;;;;;;10.50;9.40;;;;;;;;;;6315677;28;20526;-65
2023/06/10 06:03:41;;;;;;;11.73;8.40;;;;;;;;;;6309625;28;20445;-65
2023/06/10 06:06:44;;;;;;;9.53;8.60;;;;;;;;;;6318207;28;20437;-64
2023/06/10 06:09:47;;;;;;;13.70;9.37;;;;;;;;;;6310694;28;20438;-64
2023/06/10 06:12:52;;;;;;;13.33;9.77;;;;;;;;;;6322625;28;20437;-66
2023/06/10 06:15:54;;;;;;;9.43;8.53;;;;;;;;;;6318985;28;20516;-65
2023/06/10 06:18:57;;;;;;;11.00;9.13;;;;;;;;;;6316426;28;20441;-65
2023/06/10 06:22:00;;;;;;;10.43;8.77;;;;;;;;;;6316102;28;20950;-66
2023/06/10 06:25:03;;;;;;;9.03;8.13;;;;;;;;;;6320332;28;20440;-65
2023/06/10 06:28:08;;;;;;;11.77;9.00;;;;;;;;;;6319539;28;20433;-66
2023/06/10 06:31:12;;;;;;;11.53;9.30;;;;;;;;;;6298554;28;20935;-64
2023/06/10 06:34:15;;;;;;;11.67;8.97;;;;;;;;;;6319546;28;20457;-63
2023/06/10 06:37:18;;;;;;;10.33;9.30;;;;;;;;;;6320814;28;20445;-64
2023/06/10 06:40:21;;;;;;;10.80;8.40;;;;;;;;;;6321131;28;20452;-64
2023/06/10 06:43:25;;;;;;;11.33;9.73;;;;;;;;;;6309925;28;20484;-64
2023/06/10 06:46:28;;;;;;;10.23;9.30;;;;;;;;;;6324581;28;20459;-64
2023/06/10 06:49:31;;;;;;;11.03;10.13;;;;;;;;;;6319473;28;20433;-65
2023/06/10 06:52:34;;;;;;;10.73;9.80;;;;;;;;;;6323627;28;20449;-64
2023/06/10 06:55:36;;;;;;;17.60;12.50;;;;;;;;;;6309242;28;20511;-65
2023/06/10 06:58:42;;;;;;;12.57;10.97;;;;;;;;;;6315746;28;20437;-66
2023/06/10 07:01:45;;;;;;;12.37;10.80;;;;;;;;;;6318368;28;20460;-66
2023/06/10 07:04:49;;;;;;;15.67;11.30;;;;;;;;;;6314286;28;20550;-65
2023/06/10 07:07:54;;;;;;;11.50;10.17;;;;;;;;;;6323652;28;20453;-65
2023/06/10 07:10:57;;;;;;;17.37;10.90;;;;;;;;;;6326498;28;20969;-65
2023/06/10 07:14:01;;;;;;;14.93;9.97;;;;;;;;;;6341353;28;20505;-65
2023/06/10 07:17:04;;;;;;;14.20;10.10;;;;;;;;;;6311073;28;20567;-65
2023/06/10 07:20:08;;;;;;;12.60;10.17;;;;;;;;;;6311804;28;20991;-65
2023/06/10 07:23:11;;;;;;;14.73;10.43;;;;;;;;;;6324283;28;20573;-64
2023/06/10 07:26:13;;;;;;;12.57;10.07;;;;;;;;;;6325960;28;20433;-64
2023/06/10 07:29:18;;;;;;;11.50;10.40;;;;;;;;;;6331330;28;20462;-66
2023/06/10 07:32:22;;;;;;;11.93;10.73;;;;;;;;;;6338955;28;20606;-66
2023/06/10 07:35:25;;;;;;;11.23;9.97;;;;;;;;;;6322936;28;20448;-69
2023/06/10 07:38:27;;;;;;;10.83;9.80;;;;;;;;;;6316122;28;20433;-65
2023/06/10 07:41:30;;;;;;;11.97;10.67;;;;;;;;;;6314781;28;20468;-64
2023/06/10 07:44:34;;;;;;;12.20;10.53;;;;;;;;;;6321115;28;20445;-67
2023/06/10 07:47:37;;;;;;;11.67;10.47;;;;;;;;;;6324069;28;20816;-66
2023/06/10 07:50:40;;;;;;;11.90;10.90;;;;;;;;;;6312839;28;20453;-66
2023/06/10 07:53:43;;;;;;;12.87;10.97;;;;;;;;;;6320074;28;20453;-67
2023/06/10 07:56:46;;;;;;;12.90;11.13;;;;;;;;;;6324413;28;21642;-66
2023/06/10 07:59:50;;;;;;;13.33;12.10;;;;;;;;;;6324855;28;21006;-66
2023/06/10 08:02:53;;;;;;;14.30;11.70;;;;;;;;;;6311367;27;20461;-67
2023/06/10 08:05:57;;;;;;;12.57;11.30;;;;;;;;;;6321999;28;20467;-68
2023/06/10 08:09:01;;;;;;;12.40;10.30;;;;;;;;;;6327765;28;20452;-66
2023/06/10 08:12:05;;;;;;;15.17;11.33;;;;;;;;;;6325551;28;20911;-65
2023/06/10 08:15:11;;;;;;;11.57;10.67;;;;;;;;;;6331015;27;20439;-66
2023/06/10 08:18:14;;;;;;;12.00;10.80;;;;;;;;;;6320382;28;20441;-65
2023/06/10 08:21:19;;;;;;;10.73;9.77;;;;;;;;;;6318353;28;20444;-66
2023/06/10 08:24:24;;;;;;;10.80;9.73;;;;;;;;;;6304889;28;20547;-67
2023/06/10 08:27:29;;;;;;;19.60;17.90;;;;;;;;;;6318204;28;20526;-66
2023/06/10 08:30:35;;;;;;;30.90;28.40;;;;;;;;;;6315117;28;20781;-65
2023/06/10 08:33:40;;;;;;;40.03;36.53;;;;;;;;;;6323136;28;20429;-65
2023/06/10 08:36:45;;;;;;;52.67;48.07;;;;;;;;;;6309235;28;20442;-65
2023/06/10 08:39:50;;;;;;;77.60;71.47;;;;;;;;;;6323128;28;20473;-65
2023/06/10 08:43:00;;;;;;;99.57;91.90;;;;;;;;;;6319600;28;20505;-66
2023/06/10 08:46:09;;;;;;;85.93;79.37;;;;;;;;;;6322166;28;20418;-67
2023/06/10 08:49:16;;;;;;;78.33;72.17;;;;;;;;;;6307352;28;20448;-66
2023/06/10 08:52:22;;;;;;;76.83;70.43;;;;;;;;;;6322570;28;20971;-66
2023/06/10 08:55:28;;;;;;;72.57;66.70;;;;;;;;;;6322843;28;20558;-66
2023/06/10 08:58:40;;;;;;;68.63;62.30;;;;;;;;;;6319833;28;20510;-66
2023/06/10 09:01:45;;;;;;;58.20;53.20;;;;;;;;;;6321279;27;20453;-65
2023/06/10 09:04:50;;;;;;;49.03;44.73;;;;;;;;;;6321496;28;20432;-65
2023/06/10 09:07:53;;;;;;;43.10;39.40;;;;;;;;;;6319372;28;20516;-66
2023/06/10 09:10:56;;;;;;;39.03;36.03;;;;;;;;;;6296611;28;20441;-66
2023/06/10 09:13:59;;;;;;;40.93;36.63;;;;;;;;;;6323032;28;20442;-64
2023/06/10 09:17:04;;;;;;;39.60;36.30;;;;;;;;;;6321661;28;20445;-72
2023/06/10 09:20:07;;;;;;;42.77;39.10;;;;;;;;;;6314846;28;20591;-72
2023/06/10 09:23:13;;;;;;;39.87;36.50;;;;;;;;;;6311168;28;20448;-73
2023/06/10 09:26:28;;;;;;;38.70;35.40;;;;;;;;;;6322971;28;20437;-69
2023/06/10 09:29:31;;;;;;;36.57;33.50;;;;;;;;;;6322758;28;20513;-71
2023/06/10 09:32:39;;;;;;;32.30;29.23;;;;;;;;;;6315499;28;20860;-70
2023/06/10 09:35:46;;;;;;;18.63;14.47;;;;;;;;;;6317150;28;20871;-71
2023/06/10 09:38:50;;;;;;;12.07;11.10;;;;;;;;;;6329001;28;20573;-70
2023/06/10 09:41:53;;;;;;;12.73;11.30;;;;;;;;;;6310511;28;20452;-67
2023/06/10 09:44:57;;;;;;;13.83;12.63;;;;;;;;;;6309064;28;20437;-68
2023/06/10 09:48:01;;;;;;;14.87;13.57;;;;;;;;;;6312852;28;21025;-67
2023/06/10 09:51:09;;;;;;;16.77;15.37;;;;;;;;;;6326224;28;20452;-66
2023/06/10 09:54:12;;;;;;;18.23;16.47;;;;;;;;;;6301600;28;21010;-67
2023/06/10 09:57:17;;;;;;;16.80;15.40;;;;;;;;;;6335517;28;20433;-67
2023/06/10 10:00:23;;;;;;;15.57;14.17;;;;;;;;;;6328438;28;20793;-68
2023/06/10 10:03:27;;;;;;;14.30;13.20;;;;;;;;;;6323783;28;20920;-67
2023/06/10 10:06:30;;;;;;;12.87;11.87;;;;;;;;;;6316446;28;20473;-67
2023/06/10 10:09:33;;;;;;;11.60;10.60;;;;;;;;;;6322199;28;20468;-67
2023/06/10 10:12:36;;;;;;;11.33;10.43;;;;;;;;;;6337286;28;20498;-67
2023/06/10 10:15:41;;;;;;;9.40;8.60;;;;;;;;;;6320930;28;20524;-68
2023/06/10 10:18:47;;;;;;;9.60;8.80;;;;;;;;;;6310748;28;20454;-67
2023/06/10 10:21:53;;;;;;;9.57;8.77;;;;;;;;;;6322366;28;20456;-67
2023/06/10 10:24:57;;;;;;;8.50;7.70;;;;;;;;;;6332534;28;20422;-68
2023/06/10 10:28:04;;;;;;;8.20;7.37;;;;;;;;;;6321998;28;20801;-65
2023/06/10 10:31:10;;;;;;;8.87;4.37;;;;;;;;;;6310701;28;20943;-65
2023/06/10 10:34:16;;;;;;;6.20;4.33;;;;;;;;;;6330693;28;20434;-66
2023/06/10 10:37:21;;;;;;;4.53;4.23;;;;;;;;;;6326346;28;20412;-65
2023/06/10 10:40:24;;;;;;;7.10;4.00;;;;;;;;;;6319494;28;20448;-66
2023/06/10 10:43:28;;;;;;;6.17;4.50;;;;;;;;;;6339759;28;20455;-66
2023/06/10 10:46:31;;;;;;;5.17;3.90;;;;;;;;;;6339327;28;20429;-66
2023/06/10 10:49:36;;;;;;;4.13;3.83;;;;;;;;;;6325980;28;20429;-65
2023/06/10 10:52:51;;;;;;;4.77;4.20;;;;;;;;;;6329268;28;20980;-71
2023/06/10 10:56:01;;;;;;;4.57;3.73;;;;;;;;;;6325976;28;20488;-71
2023/06/10 10:59:04;;;;;;;5.50;4.00;;;;;;;;;;6330867;28;20436;-71
2023/06/10 11:02:07;;;;;;;4.13;3.83;;;;;;;;;;6335032;28;21034;-71
2023/06/10 11:05:12;;;;;;;4.33;4.00;;;;;;;;;;6333894;27;20432;-71
2023/06/10 11:08:16;;;;;;;3.70;3.40;;;;;;;;;;6336439;28;20445;-71
2023/06/10 11:11:20;;;;;;;4.13;3.83;;;;;;;;;;6305216;28;20440;-70
2023/06/10 11:14:28;;;;;;;4.30;4.00;;;;;;;;;;6307723;28;20445;-71
2023/06/10 11:17:30;;;;;;;4.00;3.70;;;;;;;;;;6317120;28;20436;-71
2023/06/10 11:20:45;;;;;;;5.10;4.60;;;;;;;;;;6325301;28;20930;-71
2023/06/10 11:23:49;;;;;;;4.10;3.80;;;;;;;;;;6346902;28;20779;-72
2023/06/10 11:26:52;;;;;;;5.10;4.40;;;;;;;;;;6328578;28;21034;-70
2023/06/10 11:29:59;;;;;;;4.50;4.20;;;;;;;;;;6307663;28;20480;-72
2023/06/10 11:33:02;;;;;;;4.40;4.00;;;;;;;;;;6318848;28;20523;-72
2023/06/10 11:36:09;;;;;;;4.20;3.90;;;;;;;;;;6323803;28;20772;-65
2023/06/10 11:39:12;;;;;;;4.37;3.70;;;;;;;;;;6313870;28;20429;-64
2023/06/10 11:42:17;;;;;;;4.83;4.13;;;;;;;;;;6323966;28;20449;-65
2023/06/10 11:45:20;;;;;;;5.03;4.63;;;;;;;;;;6322545;28;20473;-64
2023/06/10 11:48:23;;;;;;;5.50;5.00;;;;;;;;;;6323418;28;20534;-68
2023/06/10 11:51:28;;;;;;;4.43;4.13;;;;;;;;;;6331405;28;20813;-68
2023/06/10 11:54:31;;;;;;;5.87;4.27;;;;;;;;;;6322524;28;20437;-69
2023/06/10 11:57:35;;;;;;;5.73;4.70;;;;;;;;;;6324292;28;20805;-68
2023/06/10 12:00:44;;;;;;;4.63;4.23;;;;;;;;;;6316074;28;20460;-72
2023/06/10 12:03:47;;;;;;;4.70;4.30;;;;;;;;;;6324021;28;20833;-67
2023/06/10 12:06:52;;;;;;;5.27;4.30;;;;;;;;;;6324544;28;20429;-67
2023/06/10 12:10:00;;;;;;;4.80;4.00;;;;;;;;;;6323975;28;20430;-67
2023/06/10 12:13:20;;;;;;;4.27;3.87;;;;;;;;;;6312821;28;20932;-69
2023/06/10 12:16:23;;;;;;;4.40;4.00;;;;;;;;;;6323826;28;20436;-68
2023/06/10 12:19:26;;;;;;;5.93;4.27;;;;;;;;;;6323893;28;20512;-68
2023/06/10 12:22:37;;;;;;;8.17;4.90;;;;;;;;;;6324489;28;20540;-69
2023/06/10 12:25:42;;;;;;;12.43;5.20;;;;;;;;;;6312689;28;20434;-69
2023/06/10 12:28:51;;;;;;;5.77;4.87;;;;;;;;;;6326627;28;20575;-68
2023/06/10 12:31:59;;;;;;;11.70;5.63;;;;;;;;;;6324353;28;20438;-68
2023/06/10 12:35:04;;;;;;;7.93;5.57;;;;;;;;;;6313520;28;20428;-68
2023/06/10 12:38:10;;;;;;;6.97;5.27;;;;;;;;;;6331900;28;20437;-68
2023/06/10 12:41:13;;;;;;;19.67;6.30;;;;;;;;;;6318132;28;20842;-68
2023/06/10 12:44:16;;;;;;;7.50;5.23;;;;;;;;;;6322001;28;20449;-68
2023/06/10 12:47:19;;;;;;;11.03;4.97;;;;;;;;;;6309865;28;20457;-68
2023/06/10 12:50:22;;;;;;;6.03;4.57;;;;;;;;;;6316775;28;20530;-69
2023/06/10 12:53:27;;;;;;;6.83;4.40;;;;;;;;;;6321691;28;20430;-67
2023/06/10 12:56:30;;;;;;;8.40;4.80;;;;;;;;;;6319100;28;20528;-65
2023/06/10 12:59:33;;;;;;;5.10;4.60;;;;;;;;;;6316518;28;20459;-66
2023/06/10 13:02:36;;;;;;;9.30;5.60;;;;;;;;;;6321444;28;20457;-66
2023/06/10 13:05:39;;;;;;;8.30;6.23;;;;;;;;;;6318588;28;20920;-67
2023/06/10 13:08:43;;;;;;;14.67;6.20;;;;;;;;;;6313229;28;20448;-65
2023/06/10 13:11:46;;;;;;;16.97;6.40;;;;;;;;;;6317022;28;20542;-66
2023/06/10 13:14:49;;;;;;;9.50;6.57;;;;;;;;;;6322167;28;20437;-67
2023/06/10 13:17:52;;;;;;;14.87;6.60;;;;;;;;;;6317274;28;20475;-67
2023/06/10 13:20:55;;;;;;;10.20;6.93;;;;;;;;;;6310186;28;20452;-66
2023/06/10 13:24:00;;;;;;;10.83;5.73;;;;;;;;;;6321379;28;20676;-67
2023/06/10 13:27:02;;;;;;;6.70;5.13;;;;;;;;;;6318145;28;20437;-66
2023/06/10 13:30:06;;;;;;;6.67;5.83;;;;;;;;;;6315956;28;20433;-67
2023/06/10 13:33:09;;;;;;;5.83;4.90;;;;;;;;;;6301528;28;20434;-67
2023/06/10 13:36:12;;;;;;;6.17;4.77;;;;;;;;;;6317152;28;20547;-67
2023/06/10 13:39:16;;;;;;;5.13;4.60;;;;;;;;;;6319580;28;20434;-66
2023/06/10 13:42:19;;;;;;;5.83;5.20;;;;;;;;;;6323234;28;20445;-65
2023/06/10 13:45:22;;;;;;;7.53;4.50;;;;;;;;;;6314748;28;20445;-66
2023/06/10 13:48:25;;;;;;;7.20;5.60;;;;;;;;;;6320395;28;20448;-65
2023/06/10 13:51:28;;;;;;;8.43;7.53;;;;;;;;;;6326127;28;20472;-67
2023/06/10 13:54:32;;;;;;;10.40;9.00;;;;;;;;;;6312149;28;20863;-66
2023/06/10 13:57:36;;;;;;;18.80;11.40;;;;;;;;;;6321827;28;20906;-63
2023/06/10 14:00:39;;;;;;;17.47;13.37;;;;;;;;;;6320867;28;20448;-63
2023/06/10 14:03:42;;;;;;;20.73;13.30;;;;;;;;;;6320431;28;20437;-63
2023/06/10 14:06:45;;;;;;;23.83;12.20;;;;;;;;;;6309840;28;20787;-62
2023/06/10 14:09:50;;;;;;;16.43;10.23;;;;;;;;;;6314879;28;20514;-63
2023/06/10 14:12:53;;;;;;;29.43;12.80;;;;;;;;;;6319500;28;20442;-66
2023/06/10 14:15:57;;;;;;;21.43;10.70;;;;;;;;;;6320346;28;20822;-64
2023/06/10 14:19:00;;;;;;;20.70;10.40;;;;;;;;;;6310102;28;20429;-63
2023/06/10 14:22:03;;;;;;;18.07;10.33;;;;;;;;;;6325628;28;20428;-62
2023/06/10 14:25:11;;;;;;;22.10;10.80;;;;;;;;;;6322893;28;20473;-62
2023/06/10 14:28:15;;;;;;;16.17;10.80;;;;;;;;;;6289942;28;20445;-62
2023/06/10 14:31:17;;;;;;;17.97;10.60;;;;;;;;;;6293724;28;20475;-62
2023/06/10 14:34:21;;;;;;;15.70;10.67;;;;;;;;;;6296542;28;20449;-62
2023/06/10 14:37:24;;;;;;;11.57;9.50;;;;;;;;;;6296631;28;20928;-63
2023/06/10 14:40:29;;;;;;;12.40;10.10;;;;;;;;;;6285220;28;20954;-65
2023/06/10 14:43:31;;;;;;;12.13;9.97;;;;;;;;;;6295795;28;20550;-62
2023/06/10 14:46:34;;;;;;;11.93;9.33;;;;;;;;;;6296367;28;20437;-62
2023/06/10 14:49:37;;;;;;;16.10;8.80;;;;;;;;;;6296564;28;20510;-62
2023/06/10 14:52:40;;;;;;;12.93;8.97;;;;;;;;;;6307030;28;20477;-63
2023/06/10 14:55:44;;;;;;;13.70;9.10;;;;;;;;;;6346606;28;20472;-62
2023/06/10 14:58:47;;;;;;;13.93;8.70;;;;;;;;;;6346666;28;20454;-64
2023/06/10 15:01:50;;;;;;;8.13;7.53;;;;;;;;;;6341533;28;20535;-62
2023/06/10 15:04:53;;;;;;;9.07;8.00;;;;;;;;;;6340036;28;20543;-62
2023/06/10 15:07:56;;;;;;;9.83;7.60;;;;;;;;;;6346479;28;20428;-61
2023/06/10 15:11:01;;;;;;;8.10;7.40;;;;;;;;;;6346625;28;20448;-62
2023/06/10 15:14:03;;;;;;;11.17;7.87;;;;;;;;;;6335562;28;20843;-61
2023/06/10 15:17:06;;;;;;;9.33;8.20;;;;;;;;;;6346041;28;20436;-61
2023/06/10 15:20:09;;;;;;;9.60;8.70;;;;;;;;;;6346124;28;20424;-61
2023/06/10 15:23:12;;;;;;;8.67;7.87;;;;;;;;;;6330701;28;20441;-60
2023/06/10 15:26:16;;;;;;;8.47;7.43;;;;;;;;;;6309647;28;20500;-61
2023/06/10 15:29:20;;;;;;;9.63;8.40;;;;;;;;;;6323758;28;20429;-61
2023/06/10 15:32:22;;;;;;;7.50;6.27;;;;;;;;;;6325120;28;20441;-61
2023/06/10 15:35:26;;;;;;;7.50;6.70;;;;;;;;;;6324802;28;20936;-64
2023/06/10 15:38:29;;;;;;;10.80;6.37;;;;;;;;;;6314411;28;20833;-61
2023/06/10 15:41:33;;;;;;;6.40;5.80;;;;;;;;;;6324617;28;20468;-61
2023/06/10 15:44:36;;;;;;;8.17;6.37;;;;;;;;;;6324172;28;20456;-61
2023/06/10 15:47:40;;;;;;;8.37;6.13;;;;;;;;;;6319266;28;20489;-61
2023/06/10 15:50:45;;;;;;;6.23;5.63;;;;;;;;;;6319156;28;20460;-61
2023/06/10 15:53:48;;;;;;;7.90;5.80;;;;;;;;;;6344651;28;20429;-61
2023/06/10 15:56:52;;;;;;;5.40;5.00;;;;;;;;;;6349903;28;20527;-61
2023/06/10 15:59:55;;;;;;;5.60;5.03;;;;;;;;;;6338672;28;20444;-62
2023/06/10 16:02:58;;;;;;;6.17;5.00;;;;;;;;;;6349168;28;20468;-61
2023/06/10 16:06:00;;;;;;;5.73;5.10;;;;;;;;;;6349646;28;20519;-61
2023/06/10 16:09:03;;;;;;;7.63;5.67;;;;;;;;;;6349523;28;20840;-61
2023/06/10 16:12:08;;;;;;;5.27;4.87;;;;;;;;;;6338504;27;20439;-61
2023/06/10 16:15:11;;;;;;;5.27;4.80;;;;;;;;;;6349272;28;20436;-62
2023/06/10 16:18:14;;;;;;;5.97;5.13;;;;;;;;;;6349744;28;20556;-66
2023/06/10 16:21:17;;;;;;;5.67;5.17;;;;;;;;;;6346674;28;20549;-64
2023/06/10 16:24:20;;;;;;;5.40;4.90;;;;;;;;;;6343475;28;20439;-66
2023/06/10 16:27:25;;;;;;;5.20;4.77;;;;;;;;;;6349330;28;20428;-66
2023/06/10 16:30:28;;;;;;;5.30;4.90;;;;;;;;;;6349336;28;21027;-66
2023/06/10 16:33:31;;;;;;;5.00;4.50;;;;;;;;;;6339487;28;20537;-66
2023/06/10 16:36:33;;;;;;;4.93;4.53;;;;;;;;;;6349041;28;20459;-66
2023/06/10 16:39:36;;;;;;;5.27;4.77;;;;;;;;;;6348449;27;20440;-66
2023/06/10 16:42:40;;;;;;;4.97;4.57;;;;;;;;;;6349278;28;20436;-66
2023/06/10 16:45:43;;;;;;;5.10;4.53;;;;;;;;;;6338706;28;20517;-67
2023/06/10 16:48:46;;;;;;;4.73;4.33;;;;;;;;;;6351093;28;20456;-67
2023/06/10 16:51:49;;;;;;;5.07;4.67;;;;;;;;;;6346117;28;20433;-66
2023/06/10 16:54:52;;;;;;;5.40;4.60;;;;;;;;;;6323685;28;20425;-68
2023/06/10 16:57:56;;;;;;;5.23;4.57;;;;;;;;;;6312571;28;20445;-68
2023/06/10 17:01:04;;;;;;;8.97;5.50;;;;;;;;;;6322456;28;20449;-68
2023/06/10 17:04:07;;;;;;;5.00;4.50;;;;;;;;;;6323039;28;20942;-67
2023/06/10 17:07:10;;;;;;;5.47;4.87;;;;;;;;;;6315875;28;20581;-67
2023/06/10 17:10:13;;;;;;;6.13;4.93;;;;;;;;;;6314146;28;20522;-68
2023/06/10 17:13:17;;;;;;;8.93;5.23;;;;;;;;;;6313869;28;20553;-68
2023/06/10 17:16:20;;;;;;;7.93;5.30;;;;;;;;;;6318963;28;20452;-65
2023/06/10 17:19:23;;;;;;;10.57;5.53;;;;;;;;;;6311062;28;20520;-68
2023/06/10 17:22:26;;;;;;;8.03;4.90;;;;;;;;;;6322013;28;20437;-73
2023/06/10 17:25:29;;;;;;;9.87;4.60;;;;;;;;;;6315513;28;20958;-68
2023/06/10 17:28:33;;;;;;;7.70;4.63;;;;;;;;;;6322006;28;20439;-65
2023/06/10 17:31:36;;;;;;;8.63;4.73;;;;;;;;;;6312979;28;21080;-63
2023/06/10 17:34:39;;;;;;;7.13;4.80;;;;;;;;;;6334855;28;20522;-63
2023/06/10 17:37:42;;;;;;;6.13;5.00;;;;;;;;;;6321959;28;20920;-63
2023/06/10 17:40:45;;;;;;;5.60;4.80;;;;;;;;;;6320524;28;20440;-63
2023/06/10 17:43:49;;;;;;;7.53;4.77;;;;;;;;;;6327185;28;20444;-63
2023/06/10 17:46:52;;;;;;;7.57;4.83;;;;;;;;;;6347460;28;20435;-62
2023/06/10 17:49:55;;;;;;;5.20;4.70;;;;;;;;;;6327807;28;20487;-62
2023/06/10 17:52:58;;;;;;;6.13;4.10;;;;;;;;;;6317232;27;20425;-64
2023/06/10 17:56:01;;;;;;;5.90;4.20;;;;;;;;;;6343766;28;20568;-64
2023/06/10 17:59:05;;;;;;;4.30;4.00;;;;;;;;;;6322135;28;20430;-63
2023/06/10 18:02:08;;;;;;;6.97;4.70;;;;;;;;;;6320524;28;20586;-64
2023/06/10 18:05:11;;;;;;;5.37;4.73;;;;;;;;;;6314713;28;20429;-64
2023/06/10 18:08:15;;;;;;;6.57;5.07;;;;;;;;;;6321844;28;20437;-63
2023/06/10 18:11:17;;;;;;;6.17;5.57;;;;;;;;;;6336468;28;20436;-63
2023/06/10 18:14:22;;;;;;;5.43;4.93;;;;;;;;;;6324464;28;20433;-64